createdAt,value
2019-03-12T00:00:40.823Z,99.99
2019-03-12T00:01:40.807Z,99.99
2019-03-12T00:02:40.864Z,99.99
2019-03-12T00:03:40.803Z,99.99
2019-03-12T00:04:40.799Z,99.99
2019-03-12T00:05:40.765Z,99.99
2019-03-12T00:06:40.755Z,99.99
2019-03-12T00:07:40.767Z,99.99
2019-03-12T00:08:40.745Z,99.99
2019-03-12T00:09:40.722Z,99.99
2019-03-12T00:10:40.721Z,99.99
2019-03-12T00:11:40.707Z,99.99
2019-03-12T00:12:40.741Z,99.99
2019-03-12T00:13:40.716Z,99.99
2019-03-12T00:14:40.706Z,99.99
2019-03-12T00:15:40.667Z,99.99
2019-03-12T00:16:40.651Z,99.99
2019-03-12T00:17:40.665Z,99.99
2019-03-12T00:18:40.648Z,99.99
2019-03-12T00:19:40.635Z,99.99
2019-03-12T00:20:40.603Z,99.99
2019-03-12T00:21:40.598Z,99.99
2019-03-12T00:22:40.596Z,99.99
2019-03-12T00:23:40.587Z,99.99
2019-03-12T00:24:40.568Z,99.99
2019-03-12T00:25:40.550Z,99.99
2019-03-12T00:26:40.589Z,99.99
2019-03-12T00:27:40.601Z,99.99
2019-03-12T00:28:40.521Z,99.99
2019-03-12T00:29:40.505Z,99.99
2019-03-12T00:30:40.502Z,99.99
2019-03-12T00:31:40.504Z,99.99
2019-03-12T00:32:40.502Z,99.99
2019-03-12T00:33:40.494Z,99.99
2019-03-12T00:34:40.475Z,99.99
2019-03-12T00:35:40.445Z,99.99
2019-03-12T00:36:40.437Z,99.99
2019-03-12T00:37:40.458Z,99.99
2019-03-12T00:38:40.425Z,99.99
2019-03-12T00:39:40.433Z,99.99
2019-03-12T00:40:40.390Z,99.99
2019-03-12T00:41:40.416Z,99.99
2019-03-12T00:42:40.399Z,99.99
2019-03-12T00:43:40.357Z,99.99
2019-03-12T00:44:40.359Z,99.99
2019-03-12T00:45:40.338Z,99.99
2019-03-12T00:46:40.329Z,99.99
2019-03-12T00:47:40.363Z,99.99
2019-03-12T00:48:40.304Z,99.99
2019-03-12T00:49:40.311Z,99.99
2019-03-12T00:50:40.290Z,99.99
2019-03-12T00:51:40.280Z,99.99
2019-03-12T00:52:40.266Z,99.99
2019-03-12T00:53:40.312Z,99.99
2019-03-12T00:54:40.282Z,99.99
2019-03-12T00:55:40.234Z,99.99
2019-03-12T00:56:40.231Z,99.99
2019-03-12T00:57:40.223Z,99.99
2019-03-12T00:58:40.218Z,99.99
2019-03-12T00:59:40.240Z,99.99
2019-03-12T01:00:40.176Z,99.99
2019-03-12T01:01:40.180Z,99.99
2019-03-12T01:02:40.182Z,99.99
2019-03-12T01:03:40.162Z,99.99
2019-03-12T01:04:40.134Z,99.99
2019-03-12T01:05:40.130Z,99.99
2019-03-12T01:06:40.139Z,99.99
2019-03-12T01:07:40.098Z,99.99
2019-03-12T01:08:40.111Z,99.99
2019-03-12T01:09:40.094Z,99.99
2019-03-12T01:10:40.067Z,99.99
2019-03-12T01:11:40.062Z,99.99
2019-03-12T01:12:40.054Z,99.99
2019-03-12T01:13:40.054Z,99.99
2019-03-12T01:14:40.032Z,99.99
2019-03-12T01:15:40.026Z,99.99
2019-03-12T01:16:40.014Z,99.99
2019-03-12T01:17:40.004Z,99.99
2019-03-12T01:18:40.034Z,99.99
2019-03-12T01:19:39.986Z,99.99
2019-03-12T01:20:39.962Z,99.99
2019-03-12T01:21:39.978Z,99.99
2019-03-12T01:22:39.950Z,99.99
2019-03-12T01:23:39.971Z,99.99
2019-03-12T01:24:39.971Z,99.99
2019-03-12T01:25:39.904Z,99.99
2019-03-12T01:26:39.902Z,99.99
2019-03-12T01:27:39.911Z,99.99
2019-03-12T01:28:39.923Z,99.99
2019-03-12T01:29:39.920Z,99.99
2019-03-12T01:30:39.864Z,99.99
2019-03-12T01:31:39.882Z,99.99
2019-03-12T01:32:39.862Z,99.99
2019-03-12T01:33:39.849Z,99.99
2019-03-12T01:34:39.851Z,99.99
2019-03-12T01:35:39.804Z,99.99
2019-03-12T01:36:39.833Z,99.99
2019-03-12T01:37:39.787Z,99.99
2019-03-12T01:38:39.795Z,99.99
2019-03-12T01:39:39.811Z,99.99
2019-03-12T01:40:39.765Z,99.99
2019-03-12T01:41:39.743Z,99.99
2019-03-12T01:42:39.733Z,99.99
2019-03-12T01:43:39.724Z,99.99
2019-03-12T01:44:39.725Z,99.99
2019-03-12T01:45:39.703Z,99.99
2019-03-12T01:46:39.698Z,99.99
2019-03-12T01:47:39.687Z,99.99
2019-03-12T01:48:39.668Z,99.99
2019-03-12T01:49:39.713Z,99.99
2019-03-12T01:50:39.656Z,99.99
2019-03-12T01:51:39.649Z,99.99
2019-03-12T01:52:39.646Z,99.99
2019-03-12T01:53:39.613Z,99.99
2019-03-12T01:54:39.613Z,99.99
2019-03-12T01:55:39.601Z,99.99
2019-03-12T01:56:39.617Z,99.99
2019-03-12T01:57:39.569Z,99.99
2019-03-12T01:58:39.555Z,99.99
2019-03-12T01:59:39.564Z,99.99
2019-03-12T02:00:39.547Z,99.99
2019-03-12T02:01:39.528Z,99.99
2019-03-12T02:02:39.523Z,99.99
2019-03-12T02:03:39.513Z,99.99
2019-03-12T02:04:39.512Z,99.99
2019-03-12T02:05:39.508Z,99.99
2019-03-12T02:06:39.471Z,99.99
2019-03-12T02:07:39.470Z,99.99
2019-03-12T02:08:39.447Z,99.99
2019-03-12T02:09:39.471Z,99.99
2019-03-12T02:10:39.446Z,99.99
2019-03-12T02:11:39.435Z,99.99
2019-03-12T02:12:39.412Z,99.99
2019-03-12T02:13:39.402Z,99.99
2019-03-12T02:14:39.433Z,99.99
2019-03-12T02:15:39.403Z,99.99
2019-03-12T02:16:39.372Z,99.99
2019-03-12T02:17:39.354Z,99.99
2019-03-12T02:18:39.359Z,99.99
2019-03-12T02:19:39.352Z,99.99
2019-03-12T02:20:39.328Z,99.99
2019-03-12T02:21:39.336Z,99.99
2019-03-12T02:22:39.322Z,99.99
2019-03-12T02:23:39.292Z,99.99
2019-03-12T02:24:51.801Z,99.99
2019-03-12T02:25:40.270Z,99.99
2019-03-12T02:26:39.278Z,99.99
2019-03-12T02:27:39.260Z,99.99
2019-03-12T02:28:39.243Z,99.99
2019-03-12T02:29:39.285Z,99.99
2019-03-12T02:30:39.235Z,99.99
2019-03-12T02:31:39.210Z,99.99
2019-03-12T02:32:39.199Z,99.99
2019-03-12T02:33:39.188Z,99.99
2019-03-12T02:34:39.195Z,99.99
2019-03-12T02:35:39.181Z,99.99
2019-03-12T02:36:39.155Z,99.99
2019-03-12T02:37:39.144Z,99.99
2019-03-12T02:38:39.151Z,99.99
2019-03-12T02:39:39.143Z,99.99
2019-03-12T02:40:39.110Z,99.99
2019-03-12T02:41:39.145Z,99.99
2019-03-12T02:42:39.118Z,99.99
2019-03-12T02:43:39.093Z,99.99
2019-03-12T02:44:39.085Z,99.99
2019-03-12T02:45:39.058Z,99.99
2019-03-12T02:46:39.057Z,99.99
2019-03-12T02:47:39.034Z,99.99
2019-03-12T02:48:39.022Z,99.99
2019-03-12T02:49:39.023Z,99.99
2019-03-12T02:50:39.006Z,99.99
2019-03-12T02:51:39.048Z,99.99
2019-03-12T02:52:39.004Z,99.99
2019-03-12T02:53:38.973Z,99.99
2019-03-12T02:54:38.987Z,99.99
2019-03-12T02:55:38.955Z,99.99
2019-03-12T02:56:38.979Z,99.99
2019-03-12T02:57:38.929Z,99.99
2019-03-12T02:58:38.952Z,99.99
2019-03-12T02:59:38.905Z,99.99
2019-03-12T03:00:38.968Z,99.84
2019-03-12T03:01:38.898Z,99.99
2019-03-12T03:02:38.872Z,99.73
2019-03-12T03:03:38.876Z,99.99
2019-03-12T03:04:38.862Z,99.99
2019-03-12T03:05:38.864Z,99.99
2019-03-12T03:06:38.832Z,99.99
2019-03-12T03:07:38.821Z,99.99
2019-03-12T03:08:38.841Z,99.99
2019-03-12T03:09:38.799Z,99.99
2019-03-12T03:10:38.821Z,99.99
2019-03-12T03:11:38.785Z,99.99
2019-03-12T03:12:38.786Z,99.99
2019-03-12T03:13:38.789Z,99.99
2019-03-12T03:14:38.755Z,99.99
2019-03-12T03:15:38.814Z,99.99
2019-03-12T03:16:38.732Z,99.99
2019-03-12T03:17:38.714Z,99.79
2019-03-12T03:18:38.710Z,99.99
2019-03-12T03:19:38.694Z,99.99
2019-03-12T03:20:38.732Z,99.99
2019-03-12T03:21:38.667Z,99.99
2019-03-12T03:22:38.666Z,99.99
2019-03-12T03:23:38.661Z,99.99
2019-03-12T03:24:38.681Z,99.99
2019-03-12T03:25:38.660Z,99.90
2019-03-12T03:26:38.615Z,99.99
2019-03-12T03:27:38.613Z,99.99
2019-03-12T20:21:36.437Z,97.56
2019-03-12T20:22:36.410Z,93.83
2019-03-12T20:23:36.393Z,88.88
2019-03-12T20:24:36.382Z,84.87
2019-03-12T20:25:36.384Z,82.20
2019-03-12T20:26:36.386Z,79.43
2019-03-12T20:27:36.347Z,76.66
2019-03-12T20:28:36.345Z,74.35
2019-03-12T20:29:36.359Z,72.21
2019-03-12T20:30:36.323Z,70.42
2019-03-12T20:31:36.322Z,68.93
2019-03-12T20:32:36.304Z,66.63
2019-03-12T20:33:36.296Z,64.95
2019-03-12T20:34:36.279Z,63.17
2019-03-12T20:35:36.262Z,61.49
2019-03-12T20:36:36.273Z,60.52
2019-03-12T20:37:36.265Z,59.18
2019-03-12T20:38:36.240Z,58.32
2019-03-12T20:39:36.222Z,57.18
2019-03-12T20:40:36.212Z,56.52
2019-03-12T20:41:36.224Z,55.79
2019-03-12T20:42:36.229Z,56.47
2019-03-12T20:43:36.236Z,73.71
2019-03-12T20:44:38.339Z,62.92
2019-03-12T20:45:36.158Z,60.18
2019-03-12T20:46:36.423Z,58.24
2019-03-12T20:47:36.205Z,57.91
2019-03-12T20:48:36.163Z,57.28
2019-03-12T20:49:36.110Z,57.56
2019-03-12T20:50:36.109Z,55.75
2019-03-12T20:51:36.084Z,55.43
2019-03-12T20:52:36.162Z,54.50
2019-03-12T20:53:36.354Z,53.97
2019-03-12T20:54:36.067Z,54.17
2019-03-12T20:55:36.048Z,53.14
2019-03-12T20:56:36.144Z,52.34
2019-03-12T20:57:36.036Z,52.32
2019-03-12T20:58:36.013Z,51.82
2019-03-12T20:59:36.019Z,51.20
2019-03-12T21:00:35.989Z,50.20
2019-03-12T21:01:35.996Z,50.77
2019-03-12T21:02:35.998Z,49.67
2019-03-12T21:03:35.959Z,49.57
2019-03-12T21:04:35.949Z,48.77
2019-03-12T21:05:35.963Z,48.25
2019-03-12T21:06:36.155Z,47.85
2019-03-12T21:07:35.933Z,47.75
2019-03-12T21:08:35.908Z,47.53
2019-03-12T21:09:35.906Z,47.22
2019-03-12T21:10:46.623Z,47.33
2019-03-12T21:11:35.982Z,47.00
2019-03-12T21:12:35.872Z,46.20
2019-03-12T21:13:35.874Z,45.71
2019-03-12T21:14:36.053Z,45.31
2019-03-12T21:15:35.831Z,45.98
2019-03-12T21:16:35.827Z,45.68
2019-03-12T21:17:35.829Z,45.09
2019-03-12T21:18:35.797Z,45.48
2019-03-12T21:19:36.031Z,44.79
2019-03-12T21:20:35.775Z,44.59
2019-03-12T21:21:35.762Z,44.57
2019-03-12T21:22:35.773Z,44.46
2019-03-12T21:23:35.747Z,44.17
2019-03-12T21:24:35.741Z,44.37
2019-03-12T21:25:35.741Z,44.17
2019-03-12T21:26:35.705Z,42.85
2019-03-12T21:27:35.713Z,42.85
2019-03-12T21:28:35.691Z,43.17
2019-03-12T21:29:35.691Z,43.57
2019-03-12T21:30:35.674Z,42.75
2019-03-12T21:31:35.665Z,42.65
2019-03-12T21:32:35.663Z,42.65
2019-03-12T21:33:35.636Z,42.15
2019-03-12T21:34:35.626Z,42.65
2019-03-12T21:35:35.625Z,42.45
2019-03-12T21:36:35.603Z,42.35
2019-03-12T21:37:35.616Z,41.85
2019-03-12T21:38:35.588Z,41.55
2019-03-12T21:39:35.572Z,42.35
2019-03-12T21:40:35.559Z,41.96
2019-03-12T21:41:35.547Z,42.15
2019-03-12T21:42:35.531Z,41.55
2019-03-12T21:43:35.533Z,41.66
2019-03-12T21:44:35.518Z,41.16
2019-03-12T21:45:35.509Z,41.44
2019-03-12T21:46:35.495Z,41.25
2019-03-12T21:47:35.483Z,41.24
2019-03-12T21:48:35.482Z,41.03
2019-03-12T21:49:35.460Z,40.84
2019-03-12T21:50:35.459Z,41.03
2019-03-12T21:51:35.441Z,41.14
2019-03-12T21:52:35.433Z,40.64
2019-03-12T21:53:35.434Z,40.64
2019-03-12T21:54:35.402Z,40.64
2019-03-12T21:55:37.763Z,40.64
2019-03-12T21:56:35.396Z,40.54
2019-03-12T21:57:35.376Z,40.14
2019-03-12T21:58:35.378Z,40.24
2019-03-12T21:59:35.352Z,39.25
2019-03-12T22:00:35.338Z,39.94
2019-03-12T22:01:35.331Z,40.14
2019-03-12T22:02:35.333Z,39.74
2019-03-12T22:03:35.323Z,39.34
2019-03-12T22:04:35.294Z,39.94
2019-03-12T22:05:35.284Z,39.44
2019-03-12T22:06:35.282Z,39.64
2019-03-12T22:07:35.264Z,39.04
2019-03-12T22:08:35.270Z,39.44
2019-03-12T22:09:35.246Z,39.64
2019-03-12T22:10:35.314Z,39.84
2019-03-12T22:11:35.226Z,39.14
2019-03-12T22:12:35.212Z,39.14
2019-03-12T22:13:35.222Z,38.95
2019-03-12T22:14:35.211Z,38.35
2019-03-12T22:15:35.186Z,38.84
2019-03-12T22:16:35.171Z,38.84
2019-03-12T22:17:35.160Z,38.54
2019-03-12T22:18:35.175Z,38.95
2019-03-12T22:19:35.138Z,38.84
2019-03-12T22:20:35.133Z,39.04
2019-03-12T22:21:35.128Z,38.54
2019-03-12T22:22:35.104Z,38.84
2019-03-12T22:23:35.204Z,38.95
2019-03-12T22:24:35.081Z,38.45
2019-03-12T22:25:35.071Z,39.04
2019-03-12T22:26:35.063Z,38.84
2019-03-12T22:27:35.055Z,38.84
2019-03-12T22:28:35.046Z,38.54
2019-03-12T22:29:35.050Z,38.45
2019-03-12T22:30:35.018Z,38.73
2019-03-12T22:31:35.008Z,38.45
2019-03-12T22:32:34.997Z,38.65
2019-03-12T22:33:34.992Z,37.85
2019-03-12T22:34:34.983Z,38.35
2019-03-12T22:35:35.027Z,38.65
2019-03-12T22:36:34.962Z,38.15
2019-03-12T22:37:34.941Z,38.35
2019-03-12T22:38:34.953Z,37.95
2019-03-12T22:39:34.937Z,38.45
2019-03-12T22:40:34.903Z,38.84
2019-03-12T22:41:34.899Z,38.45
2019-03-12T22:42:34.893Z,38.73
2019-03-12T22:43:34.883Z,38.84
2019-03-12T22:44:34.880Z,38.54
2019-03-12T22:45:34.875Z,38.75
2019-03-12T22:46:34.862Z,38.95
2019-03-12T22:47:34.837Z,38.65
2019-03-12T22:48:34.834Z,37.85
2019-03-12T22:49:34.859Z,39.03
2019-03-12T22:50:34.820Z,37.95
2019-03-12T22:51:34.807Z,38.05
2019-03-12T22:52:34.784Z,38.15
2019-03-12T22:53:34.771Z,38.15
2019-03-12T22:54:34.767Z,38.35
2019-03-12T22:55:34.745Z,38.45
2019-03-12T22:56:34.734Z,38.95
2019-03-12T22:57:34.726Z,37.65
2019-03-12T22:58:34.723Z,38.95
2019-03-12T22:59:34.718Z,38.05
2019-03-12T23:00:34.719Z,38.25
2019-03-12T23:01:34.778Z,37.85
2019-03-12T23:02:34.674Z,38.65
2019-03-12T23:03:34.660Z,38.05
2019-03-12T23:04:34.673Z,38.05
2019-03-12T23:05:34.644Z,38.65
2019-03-12T23:06:34.633Z,38.65
2019-03-12T23:07:34.620Z,38.54
2019-03-12T23:08:34.603Z,38.45
2019-03-12T23:09:34.597Z,38.75
2019-03-12T23:10:34.692Z,38.45
2019-03-12T23:11:34.579Z,38.65
2019-03-12T23:12:34.557Z,38.84
2019-03-12T23:13:34.550Z,38.45
2019-03-12T23:14:34.540Z,38.84
2019-03-12T23:15:34.544Z,38.45
2019-03-12T23:16:34.519Z,38.05
2019-03-12T23:17:34.523Z,38.35
2019-03-12T23:18:34.496Z,38.84
2019-03-12T23:19:34.505Z,38.95
2019-03-12T23:20:34.496Z,37.65
2019-03-12T23:21:34.462Z,38.35
2019-03-12T23:22:34.448Z,38.15
2019-03-12T23:23:34.445Z,38.45
2019-03-12T23:24:34.430Z,38.84
2019-03-12T23:25:34.434Z,38.45
2019-03-12T23:26:34.412Z,38.37
2019-03-12T23:27:34.401Z,38.84
2019-03-12T23:28:34.387Z,38.65
2019-03-12T23:29:34.376Z,38.84
2019-03-12T23:30:34.378Z,38.65
2019-03-12T23:31:34.356Z,38.25
2019-03-12T23:32:34.346Z,38.15
2019-03-12T23:33:34.337Z,38.84
2019-03-12T23:34:34.325Z,38.54
2019-03-12T23:35:34.336Z,37.95
2019-03-12T23:36:34.300Z,38.35
2019-03-12T23:37:34.291Z,38.75
2019-03-12T23:38:34.281Z,38.65
2019-03-12T23:39:34.295Z,38.54
2019-03-12T23:40:34.281Z,37.95
2019-03-12T23:41:34.252Z,38.84
2019-03-12T23:42:34.245Z,38.84
2019-03-12T23:43:34.256Z,38.54
2019-03-12T23:44:34.228Z,38.35
2019-03-12T23:45:34.209Z,38.65
2019-03-12T23:46:34.210Z,37.45
2019-03-12T23:47:34.181Z,37.45
2019-03-12T23:48:34.176Z,37.45
2019-03-12T23:49:34.165Z,37.25
2019-03-12T23:50:34.151Z,37.35
2019-03-12T23:51:34.159Z,38.17
2019-03-12T23:52:34.140Z,38.25
2019-03-12T23:53:34.124Z,38.54
2019-03-12T23:54:34.105Z,38.45
2019-03-12T23:55:34.092Z,38.75
2019-03-12T23:56:34.107Z,38.46
2019-03-12T23:57:34.071Z,37.05
2019-03-12T23:58:34.060Z,38.46
2019-03-12T23:59:34.051Z,37.47
